createdAt,value
2022-10-25T00:01:55.992Z,41.90
2022-10-25T00:04:23.031Z,41.70
2022-10-25T00:06:49.974Z,41.70
2022-10-25T00:09:16.913Z,42.90
2022-10-25T00:11:43.790Z,41.60
2022-10-25T00:14:15.863Z,41.80
2022-10-25T00:16:42.794Z,43.30
2022-10-25T00:19:11.846Z,42.60
2022-10-25T00:21:38.771Z,43.00
2022-10-25T00:24:06.095Z,44.00
2022-10-25T00:26:33.197Z,44.40
2022-10-25T00:29:00.052Z,44.90
2022-10-25T00:31:27.131Z,45.40
2022-10-25T00:33:53.926Z,45.00
2022-10-25T00:36:23.790Z,45.30
2022-10-25T00:38:51.353Z,45.80
2022-10-25T00:41:22.452Z,46.30
2022-10-25T00:44:13.498Z,46.40
2022-10-25T00:46:40.795Z,46.50
2022-10-25T00:49:18.854Z,46.50
2022-10-25T00:51:57.398Z,46.50
2022-10-25T00:54:30.370Z,46.40
2022-10-25T00:57:01.169Z,46.40
2022-10-25T00:59:28.979Z,46.30
2022-10-25T01:01:56.689Z,43.10
2022-10-25T01:04:28.130Z,46.50
2022-10-25T01:06:55.132Z,46.40
2022-10-25T01:09:25.755Z,46.30
2022-10-25T01:11:53.083Z,46.30
2022-10-25T01:14:20.992Z,46.30
2022-10-25T01:17:26.136Z,46.40
2022-10-25T01:20:14.963Z,46.40
2022-10-25T01:22:56.860Z,47.30
2022-10-25T01:25:56.600Z,46.30
2022-10-25T01:29:08.081Z,47.20
2022-10-25T01:31:46.707Z,47.20
2022-10-25T01:34:37.825Z,47.20
2022-10-25T01:37:37.187Z,47.20
2022-10-25T01:40:16.337Z,47.30
2022-10-25T01:43:04.678Z,47.30
2022-10-25T01:45:40.559Z,47.20
2022-10-25T01:48:19.611Z,47.20
2022-10-25T01:50:47.854Z,47.20
2022-10-25T01:53:15.599Z,47.10
2022-10-25T01:55:57.119Z,47.10
2022-10-25T01:58:33.063Z,47.20
2022-10-25T02:01:20.411Z,47.10
2022-10-25T02:04:13.640Z,47.20
2022-10-25T02:06:53.208Z,47.10
2022-10-25T02:09:23.009Z,47.10
2022-10-25T02:11:51.995Z,47.20
2022-10-25T02:14:26.987Z,47.10
2022-10-25T02:17:16.488Z,47.10
2022-10-25T02:19:53.140Z,47.00
2022-10-25T02:22:23.074Z,47.00
2022-10-25T02:24:51.699Z,47.10
2022-10-25T02:27:21.376Z,47.00
2022-10-25T02:29:48.596Z,46.90
2022-10-25T02:32:15.577Z,46.90
2022-10-25T02:34:42.556Z,46.90
2022-10-25T02:37:13.315Z,48.20
2022-10-25T02:39:40.298Z,46.90
2022-10-25T02:42:07.494Z,46.90
2022-10-25T02:44:34.388Z,46.90
2022-10-25T02:47:01.373Z,46.80
2022-10-25T02:49:29.245Z,46.80
2022-10-25T02:51:56.212Z,48.00
2022-10-25T02:54:23.265Z,46.80
2022-10-25T02:56:52.574Z,46.80
2022-10-25T02:59:20.000Z,46.70
2022-10-25T03:01:47.235Z,46.70
2022-10-25T03:04:14.206Z,46.80
2022-10-25T03:06:41.219Z,46.80
2022-10-25T03:09:08.047Z,46.80
2022-10-25T03:11:34.988Z,46.90
2022-10-25T03:14:01.764Z,46.80
2022-10-25T03:16:28.636Z,47.10
2022-10-25T03:18:59.218Z,48.00
2022-10-25T03:21:26.925Z,48.10
2022-10-25T03:23:53.864Z,48.10
2022-10-25T03:26:20.886Z,48.10
2022-10-25T03:28:47.753Z,48.30
2022-10-25T03:31:16.850Z,48.50
2022-10-25T03:33:44.536Z,48.70
2022-10-25T03:36:11.530Z,48.70
2022-10-25T03:38:38.444Z,48.90
2022-10-25T03:41:05.993Z,48.90
2022-10-25T03:43:32.987Z,48.90
2022-10-25T03:46:00.146Z,49.10
2022-10-25T03:48:27.243Z,49.20
2022-10-25T03:50:54.795Z,49.40
2022-10-25T03:53:21.653Z,49.20
2022-10-25T03:55:49.950Z,49.10
2022-10-25T03:58:17.123Z,49.60
2022-10-25T04:00:44.233Z,49.50
2022-10-25T04:03:11.334Z,49.30
2022-10-25T04:05:38.258Z,49.30
2022-10-25T04:08:05.420Z,49.60
2022-10-25T04:10:32.435Z,49.80
2022-10-25T04:12:59.396Z,49.90
2022-10-25T04:15:26.499Z,49.90
2022-10-25T04:17:53.740Z,49.60
2022-10-25T04:20:20.996Z,49.60
2022-10-25T04:22:56.888Z,49.30
2022-10-25T04:25:25.858Z,49.00
2022-10-25T04:27:52.841Z,49.20
2022-10-25T04:30:20.337Z,49.10
2022-10-25T04:32:47.517Z,48.80
2022-10-25T04:35:14.887Z,48.20
2022-10-25T04:37:41.845Z,48.20
2022-10-25T04:40:09.456Z,48.10
2022-10-25T04:42:36.496Z,47.80
2022-10-25T04:45:03.639Z,47.50
2022-10-25T04:47:32.435Z,47.30
2022-10-25T04:49:59.609Z,47.00
2022-10-25T04:52:28.366Z,46.90
2022-10-25T04:54:55.613Z,47.00
2022-10-25T04:57:22.822Z,46.80
2022-10-25T04:59:49.733Z,46.60
2022-10-25T05:02:16.622Z,47.10
2022-10-25T05:04:43.563Z,46.80
2022-10-25T05:07:10.541Z,47.00
2022-10-25T05:09:37.624Z,47.60
2022-10-25T05:12:04.934Z,48.00
2022-10-25T05:14:31.996Z,48.00
2022-10-25T05:16:59.119Z,48.30
2022-10-25T05:19:26.715Z,48.50
2022-10-25T05:21:53.623Z,48.70
2022-10-25T05:24:20.706Z,48.70
2022-10-25T05:26:47.682Z,48.90
2022-10-25T05:29:14.472Z,48.90
2022-10-25T05:31:41.882Z,49.10
2022-10-25T05:34:10.262Z,49.30
2022-10-25T05:36:37.816Z,49.80
2022-10-25T05:39:04.811Z,49.70
2022-10-25T05:41:34.745Z,50.00
2022-10-25T05:44:05.312Z,50.20
2022-10-25T05:46:33.280Z,50.40
2022-10-25T05:49:00.508Z,50.70
2022-10-25T05:51:37.593Z,51.10
2022-10-25T05:54:11.397Z,51.10
2022-10-25T05:56:39.584Z,51.20
2022-10-25T05:59:09.725Z,51.40
2022-10-25T06:01:39.466Z,51.60
2022-10-25T06:04:07.241Z,52.00
2022-10-25T06:06:35.002Z,52.30
2022-10-25T06:09:02.194Z,52.80
2022-10-25T06:11:30.040Z,53.10
2022-10-25T06:13:56.964Z,53.50
2022-10-25T06:16:24.564Z,53.90
2022-10-25T06:18:52.582Z,54.00
2022-10-25T06:21:22.035Z,53.90
2022-10-25T06:23:49.661Z,54.10
2022-10-25T06:26:25.252Z,54.40
2022-10-25T06:28:57.670Z,54.70
2022-10-25T06:31:24.888Z,54.90
2022-10-25T06:33:53.063Z,55.30
2022-10-25T06:36:24.572Z,55.70
2022-10-25T06:38:51.762Z,55.80
2022-10-25T06:41:28.027Z,56.10
2022-10-25T06:43:55.837Z,56.00
2022-10-25T06:46:27.585Z,56.60
2022-10-25T06:48:57.260Z,56.80
2022-10-25T06:51:25.481Z,57.20
2022-10-25T06:54:00.668Z,57.60
2022-10-25T06:56:28.827Z,57.70
2022-10-25T06:58:55.960Z,58.00
2022-10-25T07:01:24.810Z,58.30
2022-10-25T07:03:53.851Z,58.70
2022-10-25T07:06:29.573Z,58.60
2022-10-25T07:09:01.285Z,58.50
2022-10-25T07:11:30.854Z,58.80
2022-10-25T07:13:59.196Z,59.60
2022-10-25T07:16:28.458Z,59.80
2022-10-25T07:19:03.342Z,60.30
2022-10-25T07:21:31.884Z,60.40
2022-10-25T07:23:58.966Z,59.60
2022-10-25T07:26:31.612Z,59.70
2022-10-25T07:29:00.191Z,59.80
2022-10-25T07:31:29.997Z,60.20
2022-10-25T07:34:01.878Z,60.20
2022-10-25T07:36:28.793Z,60.40
2022-10-25T07:38:57.067Z,60.10
2022-10-25T07:41:25.186Z,59.40
2022-10-25T07:43:52.204Z,61.00
2022-10-25T07:46:19.209Z,60.50
2022-10-25T07:48:46.123Z,60.50
2022-10-25T07:51:15.437Z,60.50
2022-10-25T07:53:42.719Z,60.50
2022-10-25T07:56:20.755Z,60.10
2022-10-25T07:58:51.961Z,59.70
2022-10-25T08:01:21.963Z,60.20
2022-10-25T08:03:49.714Z,60.50
2022-10-25T08:06:16.857Z,60.70
2022-10-25T08:08:44.136Z,60.10
2022-10-25T08:11:11.740Z,60.10
2022-10-25T08:13:40.052Z,60.80
2022-10-25T08:16:07.694Z,60.90
2022-10-25T08:18:35.271Z,61.00
2022-10-25T08:21:04.011Z,61.10
2022-10-25T08:23:32.771Z,61.10
2022-10-25T08:26:00.977Z,61.20
2022-10-25T08:28:28.923Z,61.30
2022-10-25T08:30:56.020Z,61.30
2022-10-25T08:33:23.926Z,61.70
2022-10-25T08:35:51.318Z,62.20
2022-10-25T08:38:18.430Z,62.20
2022-10-25T08:41:01.378Z,62.20
2022-10-25T08:43:37.416Z,61.80
2022-10-25T08:46:16.685Z,61.80
2022-10-25T08:48:49.358Z,61.30
2022-10-25T08:51:30.183Z,61.40
2022-10-25T08:54:02.889Z,59.90
2022-10-25T08:56:30.437Z,59.60
2022-10-25T08:59:01.548Z,57.60
2022-10-25T09:01:44.902Z,57.80
2022-10-25T09:04:12.343Z,57.90
2022-10-25T09:07:03.484Z,58.80
2022-10-25T09:09:33.607Z,58.00
2022-10-25T09:13:08.407Z,57.50
2022-10-25T09:16:09.460Z,55.70
2022-10-25T09:18:57.599Z,56.40
2022-10-25T09:21:34.047Z,56.50
2022-10-25T09:24:19.041Z,56.80
2022-10-25T09:27:04.914Z,56.00
2022-10-25T09:29:39.064Z,56.00
2022-10-25T09:32:22.590Z,55.60
2022-10-25T09:34:50.588Z,54.50
2022-10-25T09:37:33.007Z,54.40
2022-10-25T09:40:05.152Z,53.90
2022-10-25T09:42:40.075Z,52.30
2022-10-25T09:45:16.163Z,49.40
2022-10-25T09:48:22.126Z,49.40
2022-10-25T09:51:06.123Z,49.30
2022-10-25T09:53:37.788Z,49.40
2022-10-25T09:56:05.366Z,49.40
2022-10-25T09:58:33.566Z,47.90
2022-10-25T10:01:12.601Z,47.30
2022-10-25T10:03:41.315Z,46.40
2022-10-25T10:06:28.913Z,45.40
2022-10-25T10:09:05.727Z,44.50
2022-10-25T10:11:34.553Z,43.40
2022-10-25T10:14:24.655Z,43.90
2022-10-25T10:16:56.370Z,41.80
2022-10-25T10:19:23.313Z,43.10
2022-10-25T10:21:58.852Z,43.70
2022-10-25T10:24:34.577Z,43.80
2022-10-25T10:27:07.016Z,43.70
2022-10-25T10:29:50.331Z,42.50
2022-10-25T10:32:27.694Z,42.10
2022-10-25T10:34:57.172Z,42.20
2022-10-25T10:37:32.582Z,42.50
2022-10-25T10:40:08.831Z,42.00
2022-10-25T10:42:42.916Z,42.00
2022-10-25T10:45:18.687Z,41.90
2022-10-25T10:47:51.740Z,41.40
2022-10-25T10:50:25.616Z,41.20
2022-10-25T10:53:07.659Z,40.70
2022-10-25T10:55:52.452Z,40.10
2022-10-25T10:58:27.447Z,40.00
2022-10-25T11:01:03.146Z,39.80
2022-10-25T11:03:53.833Z,38.90
2022-10-25T11:06:32.546Z,38.60
2022-10-25T11:09:18.222Z,38.60
2022-10-25T11:12:03.108Z,38.80
2022-10-25T11:14:30.150Z,39.80
2022-10-25T11:17:17.053Z,39.90
2022-10-25T11:19:59.175Z,38.60
2022-10-25T11:22:35.468Z,38.90
2022-10-25T11:25:23.759Z,37.10
2022-10-25T11:28:18.816Z,34.30
2022-10-25T11:30:51.623Z,34.10
2022-10-25T11:33:39.806Z,34.20
2022-10-25T11:36:28.197Z,33.50
2022-10-25T11:39:13.203Z,33.40
2022-10-25T11:41:53.470Z,32.50
2022-10-25T11:44:37.325Z,32.30
2022-10-25T11:47:42.369Z,32.60
2022-10-25T11:50:10.464Z,31.30
2022-10-25T11:53:23.058Z,30.90
2022-10-25T11:55:55.572Z,30.00
2022-10-25T11:58:28.778Z,29.90
2022-10-25T12:01:22.648Z,29.40
2022-10-25T12:04:26.926Z,28.60
2022-10-25T12:07:04.719Z,27.80
2022-10-25T12:09:38.291Z,27.00
2022-10-25T12:12:11.981Z,26.60
2022-10-25T12:14:43.561Z,26.00
2022-10-25T12:17:34.519Z,25.90
2022-10-25T12:20:05.439Z,24.30
2022-10-25T12:22:44.676Z,24.30
2022-10-25T12:25:20.835Z,24.30
2022-10-25T12:27:56.428Z,24.40
2022-10-25T12:30:23.696Z,24.30
2022-10-25T12:33:10.091Z,24.50
2022-10-25T12:35:45.083Z,24.50
2022-10-25T12:38:20.569Z,24.50
2022-10-25T12:40:49.844Z,24.30
2022-10-25T12:43:21.442Z,23.00
2022-10-25T12:46:11.851Z,22.40
2022-10-25T12:48:47.767Z,21.80
2022-10-25T12:51:18.871Z,21.80
2022-10-25T12:53:54.124Z,21.20
2022-10-25T12:56:33.034Z,20.60
2022-10-25T12:59:09.162Z,20.20
2022-10-25T13:02:07.248Z,19.90
2022-10-25T13:05:21.832Z,19.60
2022-10-25T13:07:50.184Z,19.40
2022-10-25T13:10:23.250Z,19.20
2022-10-25T13:13:05.959Z,18.30
2022-10-25T13:15:43.012Z,17.30
2022-10-25T13:18:31.687Z,16.20
2022-10-25T13:21:00.467Z,16.20
2022-10-25T13:23:42.766Z,16.00
2022-10-25T13:26:13.296Z,15.40
2022-10-25T13:28:52.082Z,15.00
2022-10-25T13:31:46.287Z,15.10
2022-10-25T13:34:13.293Z,15.00
2022-10-25T13:36:46.526Z,14.70
2022-10-25T13:39:40.625Z,13.90
2022-10-25T13:42:16.660Z,13.80
2022-10-25T13:45:00.126Z,13.70
2022-10-25T13:47:39.293Z,13.50
2022-10-25T13:50:27.057Z,13.70
2022-10-25T13:53:24.734Z,12.80
2022-10-25T13:55:59.927Z,12.80
2022-10-25T13:58:32.087Z,13.10
2022-10-25T14:01:20.673Z,12.70
2022-10-25T14:03:48.657Z,12.50
2022-10-25T14:06:28.277Z,12.80
2022-10-25T14:09:19.802Z,12.60
2022-10-25T14:11:52.753Z,12.60
2022-10-25T14:14:47.933Z,12.90
2022-10-25T14:17:35.929Z,12.60
2022-10-25T14:20:23.193Z,12.90
2022-10-25T14:23:00.804Z,12.00
2022-10-25T14:26:03.343Z,11.80
2022-10-25T14:28:33.535Z,11.10
2022-10-25T14:31:08.172Z,10.80
2022-10-25T14:33:55.014Z,9.80
2022-10-25T14:36:29.709Z,9.60
2022-10-25T14:39:00.967Z,9.90
2022-10-25T14:41:29.298Z,9.70
2022-10-25T14:43:57.392Z,9.60
2022-10-25T14:46:26.628Z,9.40
2022-10-25T14:48:56.316Z,9.30
2022-10-25T14:51:28.370Z,9.30
2022-10-25T14:54:03.683Z,9.10
2022-10-25T14:56:35.992Z,9.50
2022-10-25T14:59:05.273Z,9.50
2022-10-25T15:01:33.948Z,9.60
2022-10-25T15:04:01.629Z,9.70
2022-10-25T15:06:31.735Z,9.60
2022-10-25T15:09:41.201Z,9.50
2022-10-25T15:12:05.779Z,9.50
2022-10-25T15:14:33.866Z,9.30
2022-10-25T15:17:15.198Z,9.40
2022-10-25T15:20:05.050Z,8.90
2022-10-25T15:23:00.649Z,8.70
2022-10-25T15:25:31.562Z,9.30
2022-10-25T15:28:12.512Z,9.70
2022-10-25T15:30:58.587Z,9.40
2022-10-25T15:33:28.977Z,9.30
2022-10-25T15:36:05.419Z,9.40
2022-10-25T15:39:06.320Z,9.50
2022-10-25T15:41:23.617Z,9.70
2022-10-25T15:43:51.256Z,9.70
2022-10-25T15:46:28.649Z,9.80
2022-10-25T15:48:56.103Z,10.00
2022-10-25T15:51:25.174Z,10.70
2022-10-25T15:53:54.431Z,11.30
2022-10-25T15:56:21.929Z,11.60
2022-10-25T15:58:49.150Z,12.00
2022-10-25T16:01:16.487Z,12.40
2022-10-25T16:03:43.886Z,12.70
2022-10-25T16:06:14.579Z,12.90
2022-10-25T16:08:42.357Z,13.20
2022-10-25T16:11:16.526Z,13.70
2022-10-25T16:13:46.043Z,13.80
2022-10-25T16:16:41.389Z,14.20
2022-10-25T16:19:17.974Z,14.20
2022-10-25T16:21:45.488Z,15.20
2022-10-25T16:24:13.303Z,15.60
2022-10-25T16:26:48.374Z,15.30
2022-10-25T16:29:19.503Z,15.30
2022-10-25T16:31:46.434Z,15.70
2022-10-25T16:34:15.567Z,15.80
2022-10-25T16:36:42.897Z,15.70
2022-10-25T16:39:11.517Z,15.60
2022-10-25T16:41:48.302Z,15.90
2022-10-25T16:44:18.958Z,16.10
2022-10-25T16:46:46.622Z,16.30
2022-10-25T16:49:13.966Z,16.50
2022-10-25T16:51:41.189Z,16.40
2022-10-25T16:54:08.599Z,16.50
2022-10-25T16:56:35.885Z,16.70
2022-10-25T16:59:03.454Z,16.90
2022-10-25T17:01:36.478Z,16.90
2022-10-25T17:04:05.249Z,17.00
2022-10-25T17:06:47.778Z,17.10
2022-10-25T17:09:14.834Z,17.20
2022-10-25T17:11:41.991Z,17.40
2022-10-25T17:14:12.608Z,17.30
2022-10-25T17:16:41.636Z,17.30
2022-10-25T17:19:12.960Z,17.70
2022-10-25T17:21:40.433Z,18.00
2022-10-25T17:24:09.379Z,18.50
2022-10-25T17:26:36.544Z,18.60
2022-10-25T17:29:03.770Z,18.90
2022-10-25T17:31:32.634Z,19.30
2022-10-25T17:34:00.540Z,19.70
2022-10-25T17:36:29.067Z,19.70
2022-10-25T17:38:55.985Z,20.10
2022-10-25T17:41:23.273Z,20.00
2022-10-25T17:43:52.070Z,20.00
2022-10-25T17:46:25.824Z,20.10
2022-10-25T17:48:58.706Z,20.30
2022-10-25T17:51:25.788Z,20.30
2022-10-25T17:53:54.347Z,20.30
2022-10-25T17:56:23.829Z,19.20
2022-10-25T17:58:52.889Z,19.80
2022-10-25T18:01:25.575Z,19.60
2022-10-25T18:03:54.855Z,19.60
2022-10-25T18:06:24.789Z,19.50
2022-10-25T18:08:53.576Z,19.50
2022-10-25T18:11:23.446Z,19.50
2022-10-25T18:13:56.264Z,19.70
2022-10-25T18:16:26.714Z,19.80
2022-10-25T18:18:56.116Z,20.00
2022-10-25T18:21:23.519Z,19.90
2022-10-25T18:23:58.389Z,21.40
2022-10-25T18:26:25.949Z,20.20
2022-10-25T18:28:53.483Z,20.40
2022-10-25T18:31:21.182Z,20.50
2022-10-25T18:33:48.492Z,20.90
2022-10-25T18:36:19.873Z,21.10
2022-10-25T18:38:48.311Z,21.10
2022-10-25T18:41:44.214Z,21.80
2022-10-25T18:44:15.074Z,21.80
2022-10-25T18:46:42.819Z,21.90
2022-10-25T18:49:13.556Z,21.90
2022-10-25T18:51:41.168Z,21.80
2022-10-25T18:54:14.270Z,21.70
2022-10-25T18:56:41.273Z,21.80
2022-10-25T18:59:09.723Z,21.80
2022-10-25T19:01:37.727Z,21.70
2022-10-25T19:04:05.101Z,21.80
2022-10-25T19:06:33.040Z,22.50
2022-10-25T19:09:00.205Z,23.20
2022-10-25T19:11:27.205Z,23.50
2022-10-25T19:13:55.691Z,23.80
2022-10-25T19:16:23.720Z,23.70
2022-10-25T19:18:50.776Z,24.00
2022-10-25T19:21:18.791Z,24.20
2022-10-25T19:23:46.945Z,24.40
2022-10-25T19:26:19.590Z,24.50
2022-10-25T19:28:47.397Z,24.50
2022-10-25T19:31:16.919Z,24.90
2022-10-25T19:33:52.964Z,25.40
2022-10-25T19:36:20.492Z,25.10
2022-10-25T19:38:50.149Z,25.10
2022-10-25T19:41:19.551Z,25.10
2022-10-25T19:43:47.084Z,25.20
2022-10-25T19:46:14.095Z,25.20
2022-10-25T19:48:41.559Z,25.40
2022-10-25T19:51:13.702Z,25.40
2022-10-25T19:53:40.892Z,25.70
2022-10-25T19:56:14.245Z,25.70
2022-10-25T19:58:41.655Z,25.70
2022-10-25T20:01:18.742Z,26.10
2022-10-25T20:03:48.431Z,26.40
2022-10-25T20:06:20.235Z,26.50
2022-10-25T20:08:50.772Z,26.40
2022-10-25T20:11:18.823Z,26.60
2022-10-25T20:13:46.036Z,26.80
2022-10-25T20:16:14.134Z,27.50
2022-10-25T20:18:42.667Z,28.00
2022-10-25T20:21:15.327Z,28.30
2022-10-25T20:23:49.056Z,28.60
2022-10-25T20:26:19.655Z,29.00
2022-10-25T20:28:47.686Z,29.20
2022-10-25T20:31:15.885Z,29.50
2022-10-25T20:33:44.094Z,29.60
2022-10-25T20:36:13.243Z,29.70
2022-10-25T20:38:40.950Z,28.40
2022-10-25T20:41:16.690Z,30.50
2022-10-25T20:43:49.809Z,30.70
2022-10-25T20:46:18.610Z,31.50
2022-10-25T20:48:46.477Z,32.00
2022-10-25T20:51:15.576Z,32.20
2022-10-25T20:53:48.675Z,32.30
2022-10-25T20:56:20.407Z,32.20
2022-10-25T20:58:48.469Z,32.10
2022-10-25T21:01:19.646Z,32.30
2022-10-25T21:03:46.673Z,32.50
2022-10-25T21:06:14.562Z,32.70
2022-10-25T21:08:41.777Z,32.90
2022-10-25T21:11:12.032Z,33.10
2022-10-25T21:13:39.779Z,32.90
2022-10-25T21:16:12.538Z,33.00
2022-10-25T21:18:40.428Z,32.90
2022-10-25T21:21:09.872Z,33.30
2022-10-25T21:23:37.005Z,33.30
2022-10-25T21:26:07.121Z,33.70
2022-10-25T21:28:38.750Z,34.00
2022-10-25T21:31:11.653Z,34.10
2022-10-25T21:33:39.191Z,34.40
2022-10-25T21:36:11.154Z,34.60
2022-10-25T21:38:38.807Z,34.70
2022-10-25T21:41:17.996Z,34.80
2022-10-25T21:43:47.020Z,34.70
2022-10-25T21:46:15.444Z,35.30
2022-10-25T21:48:43.854Z,35.60
2022-10-25T21:51:11.020Z,36.00
2022-10-25T21:53:38.011Z,36.30
2022-10-25T21:56:10.937Z,36.60
2022-10-25T21:58:39.179Z,36.80
2022-10-25T22:01:15.127Z,37.00
2022-10-25T22:03:42.416Z,36.60
2022-10-25T22:06:14.555Z,37.10
2022-10-25T22:08:41.923Z,37.10
2022-10-25T22:11:16.109Z,37.40
2022-10-25T22:13:43.205Z,37.40
2022-10-25T22:16:13.810Z,37.70
2022-10-25T22:18:41.155Z,37.90
2022-10-25T22:21:11.550Z,38.10
2022-10-25T22:23:39.026Z,38.20
2022-10-25T22:26:12.143Z,38.30
2022-10-25T22:28:40.924Z,38.20
2022-10-25T22:31:17.198Z,38.40
2022-10-25T22:33:45.396Z,38.30
2022-10-25T22:36:17.706Z,38.60
2022-10-25T22:38:45.203Z,38.50
2022-10-25T22:41:23.070Z,38.80
2022-10-25T22:43:50.601Z,38.40
2022-10-25T22:46:25.198Z,38.80
2022-10-25T22:48:59.001Z,38.90
2022-10-25T22:51:27.870Z,38.90
2022-10-25T22:53:55.344Z,38.80
2022-10-25T22:56:27.523Z,37.60
2022-10-25T22:59:00.494Z,38.70
2022-10-25T23:01:33.335Z,38.70
2022-10-25T23:04:00.765Z,38.60
2022-10-25T23:06:33.457Z,38.50
2022-10-25T23:09:02.248Z,38.40
2022-10-25T23:11:34.965Z,38.30
2022-10-25T23:14:02.302Z,38.40
2022-10-25T23:16:29.919Z,38.40
2022-10-25T23:18:57.496Z,38.50
2022-10-25T23:21:26.007Z,38.50
2022-10-25T23:23:54.576Z,38.50
2022-10-25T23:26:26.944Z,38.50
2022-10-25T23:28:55.236Z,38.50
2022-10-25T23:31:22.704Z,38.50
2022-10-25T23:33:54.512Z,38.30
2022-10-25T23:36:23.776Z,38.20
2022-10-25T23:38:52.253Z,38.20
2022-10-25T23:41:20.894Z,38.10
2022-10-25T23:43:48.338Z,38.10
2022-10-25T23:46:15.319Z,38.00
2022-10-25T23:48:42.307Z,37.90
2022-10-25T23:51:15.197Z,37.90
2022-10-25T23:53:42.300Z,37.60
2022-10-25T23:56:12.521Z,37.70
2022-10-25T23:58:39.854Z,37.60
